Abbott, MS

3:20 PM CDT on August 30, 2014 (GMT -0500)
WestWood II | Change Station
CLOSE
Current Station
Personal Weather Station
Location: West Point, MS
Elevation: 240 ft
Nearby Weather Stations

Elev 240 ft 33.61 °N, 88.68 °W | Updated 22 seconds ago

Thunderstorm
Thunderstorm
75.6 °F
Feels Like 76 °F
N
0.0
Wind Variable Wind from SE
Gusts 0.0 mph

Today
High -- | Low -- °F
--% Chance of Precip.
Yesterday
High -- | Low -- °F
Precip. -- in
6:27 AM 7:22 PM
Waxing Crescent, 24% visible
Pressure 30.03 in
Visibility 10.0 miles
Clouds Few 600 ft
Heat Index 76 °F
Dew Point 71 °F
Humidity 85%
Rainfall 0.27 in
Snow Depth Not available.
UV 7 out of 12
Pollen 3.70 out of 12
Air Quality Not available.
Flu Activity Not available.
SPECI KCBM 302009Z AUTO 36002KT 10SM -RA FEW006 24/22 A3003 RMK AO2 LTG DSNT S RAB2006 $

More Conditions Fewer Conditions

Pressure 30.03 in
Visibility 10.0 miles
Clouds Few 600 ft
Heat Index 76 °F
Dew Point 71 °F
Humidity 85%
Rainfall 0.27 in
Snow Depth Not available.
UV 7 out of 12
Pollen 3.70 out of 12
Air Quality Not available.
Flu Activity Not available.
SPECI KCBM 302009Z AUTO 36002KT 10SM -RA FEW006 24/22 A3003 RMK AO2 LTG DSNT S RAB2006 $

More Conditions Fewer Conditions

10-Day Weather Forecast

Almanac

Astronomy

Aug. 30, 2014 Rise Set
Actual Time 6:27 AM CDT 7:22 PM CDT
Civil Twilight 6:01 AM CDT 7:48 PM CDT
Nautical Twilight 5:31 AM CDT 8:18 PM CDT
Astronomical Twilight 5:00 AM CDT 8:49 PM CDT
Moon 10:59 AM CDT 10:13 PM CDT
Length of Visible Light 13h 46m
Length of Day
12h 55m
Tomorrow will be 1m 59s shorter.
Waxing Crescent, 24% of the Moon is Illuminated
Today
Waxing Crescent
Sep 2
First Quarter
Sep 8
Full
Sep 15
Last Quarter
Sep 24
New

Today's Extremes

State Highs State Lows

Community

WunderPhotos

Upload Photos

1,748,622 photos uploaded!

WunderBlogs® & News

Nearby

Snow Depth

Station Depth Elevation
No new snow has been reported.

Earthquake Activity

City Distance Mag. Time & Date
No recent earthquake activity has been reported nearby.
Minimum magnitude displayed is 2.5.

Coastal Water Temperatures

Place Temperature
No Stations Reporting

Nearby Weather Stations